Ganado, AZ (86505)

4:20 AM MDT on April 01, 2015 (GMT -0600)
RAWS | | Change Station
CLOSE
Current Station
Personal Weather Station
Location: Fort Defiance, AZ
Elevation: 8109 ft
Nearby Weather Stations
Active Advisory: Fire Weather Watch Active Notice: Record Report

Elev 8109 ft 35.76 °N, 109.17 °W | Updated 39 minutes ago

Mostly Cloudy
Mostly Cloudy
45 °F
Feels Like 42 °F
N
6
Wind Variable Wind from WSW
Gusts 16.0 mph

Today
High -- | Low -- °F
--% Chance of Precip.
Yesterday
High -- | Low -- °F
Precip. -- in
7:04 AM 7:39 PM
Waxing Gibbous, 92% visible
Pressure 29.76 in
Visibility 10.0 miles
Clouds Clear
Windchill 42 °F
Dew Point 25 °F
Humidity 45%
Rainfall in
Snow Depth Not available.
UV 0 out of 12
Pollen 10.30 out of 12
Air Quality Not available.
Flu Activity Not available.
METAR KRQE 010953Z AUTO 20005KT 10SM CLR 09/M03 A3005 RMK AO2 SLP076 T00891033 TSNO

More Conditions Fewer Conditions

Pressure 29.76 in
Visibility 10.0 miles
Clouds Clear
Windchill 42 °F
Dew Point 25 °F
Humidity 45%
Rainfall in
Snow Depth Not available.
UV 0 out of 12
Pollen 10.30 out of 12
Air Quality Not available.
Flu Activity Not available.
METAR KRQE 010953Z AUTO 20005KT 10SM CLR 09/M03 A3005 RMK AO2 SLP076 T00891033 TSNO

More Conditions Fewer Conditions

10-Day Weather Forecast

Almanac

Astronomy

Apr. 01, 2015 Rise Set
Actual Time
Civil Twilight
Nautical Twilight
Astronomical Twilight
Moon
Length of Visible Light
Length of Day
Tomorrow will be .
, % of the Moon is Illuminated

Today's Extremes

State Highs State Lows

Community

WunderPhotos

Upload Photos

1,809,933 photos uploaded!

WunderBlogs® & News

Nearby

Air Quality

  Air Quality AQ Index Pollutant
Not available.

Snow Depth

Station Depth Elevation

Earthquake Activity

City Distance Mag. Time & Date
Minimum magnitude displayed is 2.5.

Coastal Water Temperatures

Place Temperature

Stations

Nearby Weather Stations

Station Location Temp. Windchill Dew Point Humidity Wind Precip. Elev Updated Type
                   
Fire Weather Watch
Statement as of 3:01 AM MDT on April 01, 2015

... Fire Weather Watch remains in effect from Thursday morning
through Thursday evening for strong winds and low relative
humidity...

* affected area... Mogollon Rim and White Mountains northward to
The Four Corners region.

* Timing... winds increasing through Thursday morning exceeding
critical fire weather thresholds from 10 am Thursday through 8
PM MST.

* 20 foot winds... west 25 to 35 mph with gusts up to 50 mph.

* Minimum relative humidity... as low as 8 percent.

Precautionary/preparedness actions...

A Fire Weather Watch means that critical fire weather conditions
are possible. Listen for later forecasts and possible red flag
warnings.

Please notify field crews of this Fire Weather Watch.